NCAR-RAP Real-Time Weather Data

Output produced by METARs form (19 October 2018  15:16 UTC)
found at http://weather.rap.ucar.edu/surface/
 
RJFM 191200Z 28007KT 9999 FEW030 BKN/// 18/12 Q1019
RJFM 191100Z 27008KT 9999 FEW030 BKN/// 19/12 Q1018
RJFM 191000Z 26005KT 9999 FEW030 BKN/// 19/12 Q1018
RJFM 190900Z 14003KT 080V190 9999 FEW030 BKN/// 20/12 Q1017
RJFM 190800Z 12005KT 050V160 9999 FEW030 SCT070 BKN/// 21/10 Q1017
RJFM 190700Z 12007KT 9999 FEW030 SCT070 BKN/// 22/09 Q1016
RJFM 190600Z 10008KT 9999 FEW030 BKN/// 23/10 Q1016
RJFM 190500Z 13007KT 9999 FEW030 BKN/// 23/09 Q1016
RJFM 190400Z 10004KT 050V140 9999 FEW030 SCT/// 24/05 Q1016
RJFM 190300Z 34004KT 250V060 9999 FEW030 23/09 Q1017
RJFM 190200Z 29004KT 210V020 9999 FEW030 21/09 Q1018
RJFM 190100Z 28008KT 250V320 9999 FEW030 SCT/// 21/11 Q1018
RJFM 190000Z 26011KT 9999 FEW030 19/11 Q1019
RJFM 182300Z 27011KT 9999 FEW030 17/11 Q1018
RJFM 182200Z 27011KT 9999 FEW030 16/11 Q1017
RJFM 182110Z 27012KT 9999 FEW030 15/11 Q1016 RMK 1CU030 A3003
RJFM 181200Z 28006KT 9999 FEW030 SCT040 18/13 Q1016
RJFM 181100Z 27008KT 9999 FEW030 SCT040 18/15 Q1015
RJFM 181000Z 23004KT 9999 FEW030 19/15 Q1015
RJFM 180900Z 10004KT 9999 FEW030 21/14 Q1014
RJFM 180800Z 12005KT 9999 FEW030 21/14 Q1014
RJFM 180700Z 11005KT 9999 FEW030 22/13 Q1014
RJFM 180600Z 11006KT 9999 FEW030 23/12 Q1013
RJFM 180500Z 10005KT 9999 FEW030 23/12 Q1013
RJFM 180400Z 07006KT 9999 FEW030 23/13 Q1013
RJFM 180300Z 07005KT 010V110 9999 FEW030 22/15 Q1014
RJFM 180200Z 06005KT 9999 FEW030 22/13 Q1015
RJFM 180100Z VRB02KT 9999 FEW030 22/13 Q1015
RJFM 180000Z 31005KT 9999 FEW030 SCT/// 19/14 Q1015
RJFM 172300Z 29006KT 9999 FEW030 SCT/// 17/14 Q1014
RJFM 172200Z 29008KT 9999 FEW030 14/13 Q1014
RJFM 172110Z 28007KT 9999 FEW030 13/12 Q1014 RMK 1CU030 A2994
RJFM 171200Z 27005KT 9999 FEW030 SCT/// 17/13 Q1012
RJFM 171100Z 27008KT 9999 FEW030 SCT/// 18/14 Q1013
RJFM 171000Z 03004KT 320V050 9999 FEW030 19/13 Q1012
RJFM 170900Z 05007KT 9999 FEW030 SCT/// 21/12 Q1011
RJFM 170800Z 06007KT 9999 FEW030 BKN/// 22/11 Q1011
RJFM 170700Z 07007KT 9999 FEW030 SCT/// 23/11 Q1011
RJFM 170600Z 06009KT 9999 FEW030 SCT/// 23/11 Q1010
RJFM 170500Z 05008KT 9999 FEW030 BKN/// 23/11 Q1010
RJFM 170400Z 05006KT 9999 FEW030 SCT/// 23/13 Q1011